createdAt,value
2018-12-22T00:01:21.281Z,-0.10
2018-12-22T00:04:06.114Z,-0.10
2018-12-22T00:06:38.035Z,-0.20
2018-12-22T00:09:12.255Z,-0.20
2018-12-22T00:11:50.336Z,-0.20
2018-12-22T00:14:31.714Z,-0.20
2018-12-22T00:17:10.743Z,-0.20
2018-12-22T00:19:46.555Z,-0.20
2018-12-22T00:22:23.076Z,-0.20
2018-12-22T00:24:57.618Z,-0.20
2018-12-22T00:27:44.958Z,-0.10
2018-12-22T00:30:34.437Z,-0.10
2018-12-22T00:33:08.677Z,-0.10
2018-12-22T00:35:47.077Z,-0.10
2018-12-22T00:38:24.945Z,0.00
2018-12-22T00:41:00.024Z,0.00
2018-12-22T00:43:36.064Z,0.00
2018-12-22T00:46:17.285Z,0.00
2018-12-22T00:48:54.689Z,-0.10
2018-12-22T00:51:30.987Z,-0.10
2018-12-22T00:54:05.807Z,-0.10
2018-12-22T00:56:41.006Z,-0.10
2018-12-22T00:59:15.520Z,-0.10
2018-12-22T01:01:52.062Z,0.10
2018-12-22T01:04:31.781Z,0.20
2018-12-22T01:07:19.583Z,0.20
2018-12-22T01:09:56.084Z,0.10
2018-12-22T01:12:34.843Z,0.00
2018-12-22T01:15:09.222Z,0.00
2018-12-22T01:17:48.171Z,0.00
2018-12-22T01:20:29.384Z,0.00
2018-12-22T01:23:10.544Z,0.10
2018-12-22T01:25:57.923Z,0.20
2018-12-22T01:28:39.349Z,0.30
2018-12-22T01:31:07.284Z,0.30
2018-12-22T01:33:45.563Z,0.30
2018-12-22T01:36:20.264Z,0.30
2018-12-22T01:38:58.604Z,0.30
2018-12-22T01:41:36.001Z,0.30
2018-12-22T01:44:10.383Z,0.20
2018-12-22T01:46:45.442Z,0.20
2018-12-22T01:49:20.346Z,0.10
2018-12-22T01:51:54.243Z,0.10
2018-12-22T01:54:34.944Z,0.20
2018-12-22T01:57:09.224Z,0.20
2018-12-22T01:59:47.623Z,0.20
2018-12-22T02:02:27.050Z,0.20
2018-12-22T02:05:03.032Z,0.20
2018-12-22T02:07:35.972Z,0.20
2018-12-22T02:10:10.447Z,0.20
2018-12-22T02:12:51.287Z,0.30
2018-12-22T02:15:29.607Z,0.50
2018-12-22T02:18:04.709Z,0.60
2018-12-22T02:20:39.369Z,0.70
2018-12-22T02:23:13.622Z,0.70
2018-12-22T02:25:53.101Z,0.80
2018-12-22T02:28:31.304Z,0.80
2018-12-22T02:31:05.243Z,0.80
2018-12-22T02:33:36.964Z,0.80
2018-12-22T02:36:10.964Z,0.70
2018-12-22T02:38:51.842Z,0.80
2018-12-22T02:41:29.723Z,0.80
2018-12-22T02:44:04.203Z,0.70
2018-12-22T02:46:39.684Z,0.70
2018-12-22T02:49:15.082Z,0.70
2018-12-22T02:51:49.121Z,0.70
2018-12-22T02:54:27.703Z,0.70
2018-12-22T02:56:59.262Z,0.70
2018-12-22T02:59:38.584Z,0.70
2018-12-22T03:02:12.813Z,0.60
2018-12-22T03:04:47.930Z,0.70
2018-12-22T03:07:20.089Z,0.70
2018-12-22T03:10:00.631Z,0.60
2018-12-22T03:12:38.417Z,0.60
2018-12-22T03:15:10.548Z,0.50
2018-12-22T03:17:45.948Z,0.50
2018-12-22T03:20:27.550Z,0.50
2018-12-22T03:23:02.267Z,0.50
2018-12-22T03:25:36.828Z,0.40
2018-12-22T03:28:17.967Z,0.50
2018-12-22T03:30:58.268Z,0.50
2018-12-22T03:33:39.169Z,0.60
2018-12-22T03:36:13.666Z,0.60
2018-12-22T03:38:45.766Z,0.50
2018-12-22T03:41:26.727Z,0.60
2018-12-22T03:44:11.694Z,0.60
2018-12-22T03:46:47.185Z,0.60
2018-12-22T03:49:25.887Z,0.60
2018-12-22T03:52:00.607Z,0.60
2018-12-22T03:54:37.526Z,0.70
2018-12-22T03:57:12.325Z,0.60
2018-12-22T03:59:46.906Z,0.60
2018-12-22T04:02:22.069Z,0.70
2018-12-22T04:04:53.748Z,0.70
2018-12-22T04:07:32.506Z,0.70
2018-12-22T04:10:14.262Z,0.80
2018-12-22T04:13:02.802Z,0.80
2018-12-22T04:15:53.642Z,0.90
2018-12-22T04:18:35.201Z,0.90
2018-12-22T04:21:09.623Z,0.90
2018-12-22T04:23:41.935Z,0.90
2018-12-22T04:26:21.102Z,0.90
2018-12-22T04:29:02.600Z,0.90
2018-12-22T04:31:36.480Z,0.90
2018-12-22T04:34:13.120Z,0.90
2018-12-22T04:36:53.841Z,0.90
2018-12-22T04:39:35.341Z,1.00
2018-12-22T04:42:17.060Z,1.00
2018-12-22T04:44:53.504Z,1.00
2018-12-22T04:47:35.079Z,1.00
2018-12-22T04:50:13.019Z,1.00
2018-12-22T04:52:54.200Z,1.00
2018-12-22T04:55:25.866Z,0.90
2018-12-22T04:58:07.401Z,0.90
2018-12-22T05:00:42.167Z,1.00
2018-12-22T05:03:16.766Z,1.00
2018-12-22T05:05:55.869Z,1.00
2018-12-22T05:08:32.288Z,0.90
2018-12-22T05:11:13.167Z,0.90
2018-12-22T05:13:48.248Z,0.80
2018-12-22T05:16:27.148Z,0.80
2018-12-22T05:19:01.367Z,0.80
2018-12-22T05:21:40.069Z,0.80
2018-12-22T05:24:21.148Z,0.70
2018-12-22T05:26:58.572Z,0.60
2018-12-22T05:29:51.830Z,0.80
2018-12-22T05:32:23.750Z,0.70
2018-12-22T05:34:58.255Z,0.90
2018-12-22T05:37:31.225Z,0.90
2018-12-22T05:40:08.026Z,0.80
2018-12-22T05:42:42.846Z,0.80
2018-12-22T05:45:17.506Z,0.70
2018-12-22T05:47:52.765Z,0.60
2018-12-22T05:50:31.049Z,0.60
2018-12-22T05:53:09.406Z,0.50
2018-12-22T05:55:44.648Z,0.50
2018-12-22T05:58:18.787Z,0.50
2018-12-22T06:00:52.767Z,0.60
2018-12-22T06:03:42.066Z,0.50
2018-12-22T06:06:18.769Z,0.40
2018-12-22T06:08:53.387Z,0.30
2018-12-22T06:11:27.904Z,0.20
2018-12-22T06:13:59.947Z,0.00
2018-12-22T06:16:47.726Z,-0.20
2018-12-22T06:19:26.286Z,-0.30
2018-12-22T06:22:01.766Z,-0.40
2018-12-22T06:24:36.168Z,-0.50
2018-12-22T06:27:10.246Z,-0.60
2018-12-22T06:29:42.392Z,-0.70
2018-12-22T06:32:17.687Z,-0.70
2018-12-22T06:34:59.707Z,-0.70
2018-12-22T06:37:35.746Z,-0.60
2018-12-22T06:40:14.748Z,-0.70
2018-12-22T06:42:46.587Z,-0.70
2018-12-22T06:45:24.886Z,-0.70
2018-12-22T06:47:59.367Z,-0.60
2018-12-22T06:50:33.786Z,-0.20
2018-12-22T06:53:05.587Z,0.10
2018-12-22T06:55:43.886Z,0.30
2018-12-22T06:58:32.021Z,0.40
2018-12-22T07:01:10.342Z,0.50
2018-12-22T07:03:50.113Z,0.60
2018-12-22T07:06:27.542Z,0.70
2018-12-22T07:09:06.182Z,0.80
2018-12-22T07:11:47.505Z,0.90
2018-12-22T07:14:23.044Z,1.00
2018-12-22T07:16:57.882Z,1.00
2018-12-22T07:22:25.623Z,0.80
2018-12-22T07:25:06.493Z,0.70
2018-12-22T07:27:43.042Z,0.60
2018-12-22T07:30:15.903Z,0.60
2018-12-22T07:32:57.784Z,0.60
2018-12-22T07:35:37.042Z,0.70
2018-12-22T07:38:12.129Z,0.70
2018-12-22T07:41:00.699Z,0.70
2018-12-22T07:43:36.671Z,0.80
2018-12-22T07:46:12.567Z,0.80
2018-12-22T07:48:56.746Z,0.80
2018-12-22T07:51:33.659Z,0.90
2018-12-22T07:54:10.062Z,1.00
2018-12-22T07:56:42.764Z,1.10
2018-12-22T07:59:15.142Z,1.20
2018-12-22T08:01:51.822Z,1.30
2018-12-22T08:04:30.704Z,1.50
2018-12-22T08:07:09.241Z,1.50
2018-12-22T08:09:40.704Z,1.50
2018-12-22T08:12:19.143Z,1.60
2018-12-22T08:15:00.950Z,1.60
2018-12-22T08:17:36.649Z,1.60
2018-12-22T08:20:14.794Z,1.60
2018-12-22T08:22:56.530Z,1.70
2018-12-22T08:25:38.593Z,1.80
2018-12-22T08:28:19.939Z,1.90
2018-12-22T08:30:53.198Z,2.00
2018-12-22T08:33:31.922Z,2.00
2018-12-22T08:36:08.105Z,2.10
2018-12-22T08:38:41.208Z,2.00
2018-12-22T08:49:00.826Z,2.50
2018-12-22T08:51:36.343Z,2.70
2018-12-22T08:54:11.883Z,2.90
2018-12-22T08:56:48.650Z,3.00
2018-12-22T08:59:24.883Z,3.20
2018-12-22T09:01:59.138Z,3.40
2018-12-22T09:04:33.639Z,3.50
2018-12-22T09:09:55.198Z,3.80
2018-12-22T09:12:32.938Z,3.90
2018-12-22T09:15:06.379Z,4.00
2018-12-22T09:17:41.138Z,4.10
2018-12-22T09:20:20.178Z,4.10
2018-12-22T09:23:00.779Z,4.10
2018-12-22T09:25:32.542Z,4.10
2018-12-22T09:28:05.664Z,4.00
2018-12-22T09:33:38.839Z,3.90
2018-12-22T09:36:14.118Z,3.90
2018-12-22T09:38:52.099Z,3.80
2018-12-22T09:41:28.439Z,3.80
2018-12-22T09:44:08.019Z,3.70
2018-12-22T09:46:40.300Z,3.70
2018-12-22T09:49:14.752Z,3.60
2018-12-22T09:51:57.286Z,3.60
2018-12-22T09:54:35.626Z,3.70
2018-12-22T09:57:10.047Z,3.70
2018-12-22T09:59:51.426Z,3.70
2018-12-22T10:02:23.063Z,3.70
2018-12-22T10:04:57.034Z,3.60
2018-12-22T10:07:33.096Z,3.50
2018-12-22T10:10:09.958Z,3.40
2018-12-22T10:12:44.979Z,3.30
2018-12-22T10:15:20.361Z,3.40
2018-12-22T10:17:52.168Z,3.30
2018-12-22T10:20:24.907Z,3.30
2018-12-22T10:22:59.469Z,3.20
2018-12-22T10:25:31.222Z,3.20
2018-12-22T10:28:07.670Z,3.20
2018-12-22T10:30:40.022Z,3.40
2018-12-22T10:33:14.978Z,3.50
2018-12-22T10:35:51.918Z,3.60
2018-12-22T10:38:23.739Z,3.60
2018-12-22T10:40:58.802Z,3.70
2018-12-22T10:43:43.478Z,3.70
2018-12-22T10:46:16.539Z,3.70
2018-12-22T10:48:51.834Z,3.60
2018-12-22T10:51:32.958Z,3.60
2018-12-22T10:54:07.118Z,3.60
2018-12-22T10:56:43.718Z,3.60
2018-12-22T10:59:20.065Z,3.60
2018-12-22T11:01:59.951Z,3.60
2018-12-22T11:04:42.725Z,3.60
2018-12-22T11:07:18.064Z,3.60
2018-12-22T11:09:56.684Z,3.70
2018-12-22T11:12:33.985Z,3.70
2018-12-22T11:15:08.503Z,3.70
2018-12-22T11:17:40.223Z,3.70
2018-12-22T11:20:15.064Z,3.70
2018-12-22T11:22:50.885Z,3.70
2018-12-22T11:25:23.377Z,3.70
2018-12-22T11:27:55.937Z,3.80
2018-12-22T11:30:30.604Z,3.90
2018-12-22T11:33:03.930Z,4.00
2018-12-22T11:35:36.783Z,4.10
2018-12-22T11:38:13.522Z,4.20
2018-12-22T11:41:00.446Z,4.20
2018-12-22T11:43:35.509Z,4.30
2018-12-22T11:46:11.044Z,4.40
2018-12-22T11:48:46.247Z,4.40
2018-12-22T11:51:19.191Z,4.40
2018-12-22T11:53:51.622Z,4.40
2018-12-22T11:56:23.898Z,4.50
2018-12-22T11:58:58.043Z,4.50
2018-12-22T12:01:32.974Z,4.50
2018-12-22T12:04:04.453Z,4.70
2018-12-22T12:06:41.221Z,4.70
2018-12-22T12:09:13.764Z,4.60
2018-12-22T12:11:50.425Z,4.70
2018-12-22T12:14:26.346Z,4.80
2018-12-22T12:16:59.944Z,4.80
2018-12-22T12:19:34.332Z,4.80
2018-12-22T12:22:09.865Z,4.90
2018-12-22T12:24:47.119Z,4.90
2018-12-22T12:27:23.029Z,4.80
2018-12-22T12:29:57.868Z,4.80
2018-12-22T12:32:32.967Z,4.90
2018-12-22T12:35:05.868Z,5.10
2018-12-22T12:37:37.607Z,5.10
2018-12-22T12:40:13.183Z,5.20
2018-12-22T12:42:48.708Z,5.40
2018-12-22T12:45:20.528Z,5.60
2018-12-22T12:47:55.529Z,5.60
2018-12-22T12:50:27.547Z,5.70
2018-12-22T12:53:09.771Z,5.70
2018-12-22T12:55:45.827Z,5.90
2018-12-22T12:58:18.598Z,6.20
2018-12-22T13:01:05.028Z,6.30
2018-12-22T13:03:42.201Z,6.50
2018-12-22T13:06:17.323Z,6.60
2018-12-22T13:08:59.048Z,6.70
2018-12-22T13:11:37.540Z,6.70
2018-12-22T13:16:58.760Z,6.60
2018-12-22T13:19:31.058Z,6.90
2018-12-22T13:22:05.800Z,6.90
2018-12-22T13:24:38.302Z,6.90
2018-12-22T13:27:14.078Z,7.00
2018-12-22T13:29:46.599Z,7.00
2018-12-22T13:32:21.638Z,7.00
2018-12-22T13:34:57.601Z,7.00
2018-12-22T13:37:35.362Z,7.00
2018-12-22T13:40:16.404Z,7.10
2018-12-22T13:42:51.142Z,7.10
2018-12-22T13:45:26.099Z,7.10
2018-12-22T13:48:05.922Z,7.10
2018-12-22T13:53:33.651Z,7.10
2018-12-22T13:56:08.319Z,7.10
2018-12-22T13:58:43.049Z,7.10
2018-12-22T14:01:18.653Z,7.10
2018-12-22T14:03:55.963Z,7.10
2018-12-22T14:06:30.724Z,7.10
2018-12-22T14:09:06.917Z,7.10
2018-12-22T14:11:41.449Z,7.10
2018-12-22T14:14:18.334Z,7.00
2018-12-22T14:16:55.030Z,6.90
2018-12-22T14:19:34.389Z,6.90
2018-12-22T14:22:11.550Z,6.80
2018-12-22T14:24:53.648Z,6.70
2018-12-22T14:27:32.276Z,6.80
2018-12-22T14:30:11.950Z,6.60
2018-12-22T14:32:49.288Z,6.50
2018-12-22T14:35:27.712Z,6.50
2018-12-22T14:38:02.849Z,6.40
2018-12-22T14:40:38.410Z,6.30
2018-12-22T14:43:11.048Z,6.20
2018-12-22T14:48:25.310Z,6.20
2018-12-22T14:51:00.270Z,6.10
2018-12-22T14:53:36.307Z,5.90
2018-12-22T14:56:18.331Z,5.90
2018-12-22T14:59:00.009Z,5.70
2018-12-22T15:01:35.796Z,5.60
2018-12-22T15:04:11.007Z,5.50
2018-12-22T15:06:46.588Z,5.40
2018-12-22T15:09:19.169Z,5.30
2018-12-22T15:11:58.789Z,5.20
2018-12-22T15:14:37.529Z,5.10
2018-12-22T15:17:14.567Z,5.10
2018-12-22T15:19:55.888Z,5.00
2018-12-22T15:22:31.711Z,4.90
2018-12-22T15:25:08.200Z,4.80
2018-12-22T15:27:40.388Z,4.90
2018-12-22T15:30:16.987Z,4.90
2018-12-22T15:32:54.689Z,5.00
2018-12-22T15:35:31.650Z,5.00
2018-12-22T15:38:11.529Z,4.90
2018-12-22T15:43:32.730Z,4.80
2018-12-22T15:46:10.488Z,4.80
2018-12-22T15:48:46.789Z,5.00
2018-12-22T15:51:19.308Z,4.90
2018-12-22T15:53:52.929Z,4.90
2018-12-22T15:56:27.827Z,5.10
2018-12-22T15:59:00.946Z,5.20
2018-12-22T16:01:38.041Z,5.10
2018-12-22T16:04:15.133Z,5.10
2018-12-22T16:06:48.975Z,5.10
2018-12-22T16:09:27.998Z,4.90
2018-12-22T16:12:03.361Z,4.80
2018-12-22T16:14:38.319Z,4.70
2018-12-22T16:17:19.678Z,4.50
2018-12-22T16:19:54.198Z,4.40
2018-12-22T16:22:29.201Z,4.50
2018-12-22T16:25:11.405Z,4.60
2018-12-22T16:27:43.098Z,4.50
2018-12-22T16:30:22.258Z,4.50
2018-12-22T16:33:01.610Z,4.60
2018-12-22T16:35:35.419Z,4.70
2018-12-22T16:38:14.834Z,4.90
2018-12-22T16:40:50.918Z,4.90
2018-12-22T16:43:23.159Z,5.20
2018-12-22T16:45:59.160Z,5.10
2018-12-22T16:48:37.838Z,5.10
2018-12-22T16:51:18.941Z,5.10
2018-12-22T16:53:54.638Z,5.10
2018-12-22T16:56:35.118Z,5.10
2018-12-22T16:59:10.758Z,5.10
2018-12-22T17:01:47.571Z,5.20
2018-12-22T17:04:23.501Z,5.30
2018-12-22T17:07:01.541Z,5.50
2018-12-22T17:09:35.438Z,5.60
2018-12-22T17:12:17.001Z,5.70
2018-12-22T17:14:53.224Z,5.70
2018-12-22T17:17:31.264Z,5.60
2018-12-22T17:20:05.022Z,5.60
2018-12-22T17:22:42.325Z,5.50
2018-12-22T17:25:25.841Z,5.50
2018-12-22T17:28:04.362Z,5.60
2018-12-22T17:33:39.289Z,5.80
2018-12-22T17:36:14.984Z,5.50
2018-12-22T17:38:51.569Z,5.00
2018-12-22T17:41:31.179Z,4.70
2018-12-22T17:44:09.959Z,4.40
2018-12-22T17:46:42.260Z,4.40
2018-12-22T17:49:24.902Z,4.70
2018-12-22T17:52:01.320Z,4.90
2018-12-22T17:54:37.179Z,4.90
2018-12-22T17:57:17.120Z,4.90
2018-12-22T17:59:52.682Z,4.90
2018-12-22T18:02:30.001Z,5.00
2018-12-22T18:05:03.582Z,5.30
2018-12-22T18:07:45.022Z,5.60
2018-12-22T18:10:20.621Z,5.80
2018-12-22T18:12:57.681Z,6.00
2018-12-22T18:15:38.301Z,6.10
2018-12-22T18:18:11.361Z,6.20
2018-12-22T18:23:18.764Z,6.10
2018-12-22T18:25:54.142Z,5.90
2018-12-22T18:28:30.403Z,5.70
2018-12-22T18:31:06.942Z,5.70
2018-12-22T18:33:45.244Z,5.70
2018-12-22T18:36:18.301Z,5.80
2018-12-22T18:38:55.362Z,6.00
2018-12-22T18:41:31.222Z,6.10
2018-12-22T18:44:08.121Z,6.30
2018-12-22T18:46:43.642Z,6.50
2018-12-22T18:49:15.522Z,6.70
2018-12-22T18:51:54.283Z,6.90
2018-12-22T18:54:30.501Z,7.00
2018-12-22T18:57:06.483Z,7.20
2018-12-22T18:59:41.703Z,7.40
2018-12-22T19:02:17.512Z,7.40
2018-12-22T19:04:52.255Z,7.60
2018-12-22T19:07:31.132Z,7.60
2018-12-22T19:10:10.970Z,7.50
2018-12-22T19:12:49.691Z,7.40
2018-12-22T19:15:32.872Z,7.30
2018-12-22T19:21:17.751Z,7.30
2018-12-22T19:23:59.432Z,7.40
2018-12-22T19:26:34.339Z,7.30
2018-12-22T19:29:09.520Z,7.20
2018-12-22T19:31:45.593Z,7.00
2018-12-22T19:34:21.090Z,6.90
2018-12-22T19:37:02.192Z,6.90
2018-12-22T19:39:38.691Z,7.00
2018-12-22T19:44:58.811Z,6.90
2018-12-22T19:47:31.188Z,6.80
2018-12-22T19:50:19.864Z,6.70
2018-12-22T19:52:56.270Z,6.70
2018-12-22T19:55:37.590Z,6.70
2018-12-22T19:58:13.564Z,6.60
2018-12-22T20:01:01.802Z,6.60
2018-12-22T20:03:44.317Z,6.60
2018-12-22T20:06:27.196Z,6.60
2018-12-22T20:09:00.511Z,6.80
2018-12-22T20:11:35.405Z,6.90
2018-12-22T20:14:10.915Z,6.90
2018-12-22T20:16:43.024Z,6.90
2018-12-22T20:19:18.658Z,6.90
2018-12-22T20:21:53.562Z,6.90
2018-12-22T20:24:26.803Z,6.90
2018-12-22T20:27:02.603Z,6.80
2018-12-22T20:29:34.081Z,6.80
2018-12-22T20:32:19.402Z,6.80
2018-12-22T20:34:50.772Z,6.80
2018-12-22T20:37:25.091Z,6.80
2018-12-22T20:40:00.365Z,6.80
2018-12-22T20:42:34.880Z,6.80
2018-12-22T20:45:06.925Z,6.70
2018-12-22T20:47:46.020Z,6.60
2018-12-22T20:50:21.188Z,6.50
2018-12-22T20:52:57.629Z,6.30
2018-12-22T20:55:29.606Z,6.20
2018-12-22T20:58:02.287Z,6.00
2018-12-22T21:00:36.863Z,5.80
2018-12-22T21:03:12.103Z,5.50
2018-12-22T21:05:48.583Z,5.30
2018-12-22T21:08:23.688Z,5.10
2018-12-22T21:11:02.123Z,5.00
2018-12-22T21:13:36.983Z,4.90
2018-12-22T21:16:09.088Z,4.90
2018-12-22T21:18:44.225Z,4.80
2018-12-22T21:21:18.564Z,4.70
2018-12-22T21:23:49.869Z,4.60
2018-12-22T21:26:24.644Z,4.50
2018-12-22T21:29:05.093Z,4.50
2018-12-22T21:31:39.332Z,4.50
2018-12-22T21:34:11.016Z,4.50
2018-12-22T21:36:52.339Z,4.40
2018-12-22T21:39:27.443Z,4.40
2018-12-22T21:42:06.227Z,4.40
2018-12-22T21:44:41.796Z,4.30
2018-12-22T21:47:15.026Z,4.30
2018-12-22T21:49:53.868Z,4.20
2018-12-22T21:52:30.967Z,4.10
2018-12-22T21:55:07.911Z,4.10
2018-12-22T21:57:43.841Z,4.10
2018-12-22T22:00:26.098Z,4.10
2018-12-22T22:03:04.227Z,4.10
2018-12-22T22:05:47.641Z,4.10
2018-12-22T22:08:23.679Z,4.10
2018-12-22T22:11:03.653Z,4.10
2018-12-22T22:13:38.167Z,4.20
2018-12-22T22:16:14.518Z,4.20
2018-12-22T22:18:47.146Z,4.20
2018-12-22T22:21:21.825Z,4.10
2018-12-22T22:23:53.555Z,4.10
2018-12-22T22:26:32.702Z,4.10
2018-12-22T22:29:14.746Z,4.20
2018-12-22T22:31:46.384Z,4.30
2018-12-22T22:34:25.893Z,4.40
2018-12-22T22:37:00.394Z,4.60
2018-12-22T22:39:42.646Z,4.80
2018-12-22T22:42:14.943Z,5.20
2018-12-22T22:44:47.204Z,5.30
2018-12-22T22:47:28.744Z,5.20
2018-12-22T22:50:04.542Z,5.00
2018-12-22T22:52:39.143Z,4.80
2018-12-22T22:55:15.962Z,4.50
2018-12-22T22:57:48.246Z,4.40
2018-12-22T23:00:25.402Z,4.20
2018-12-22T23:02:59.825Z,4.10
2018-12-22T23:05:34.848Z,3.90
2018-12-22T23:08:06.629Z,3.80
2018-12-22T23:10:40.869Z,3.90
2018-12-22T23:13:17.771Z,4.20
2018-12-22T23:15:56.190Z,4.40
2018-12-22T23:18:30.750Z,4.50
2018-12-22T23:21:05.169Z,4.60
2018-12-22T23:23:39.570Z,4.70
2018-12-22T23:26:14.369Z,4.70
2018-12-22T23:28:55.790Z,4.70
2018-12-22T23:31:27.790Z,4.70
2018-12-22T23:34:02.508Z,4.80
2018-12-22T23:36:38.519Z,4.80
2018-12-22T23:39:10.741Z,4.80
2018-12-22T23:41:42.560Z,4.90
2018-12-22T23:44:18.260Z,4.90
2018-12-22T23:46:54.024Z,5.00
2018-12-22T23:49:25.081Z,5.00
2018-12-22T23:51:59.799Z,5.00
2018-12-22T23:54:35.482Z,4.90
2018-12-22T23:57:07.558Z,4.60
2018-12-22T23:59:39.978Z,4.30
